Time;durP1;ratioP1;P1;durP2;ratioP2;P2;SDS_P1;SDS_P2;PMS_P1;PMS_P2;Temp;Humidity;BMP_temperature;BMP_pressure;BME280_temperature;BME280_humidity;BME280_pressure;Samples;Min_cycle;Max_cycle;Signal;HPM_P1;HPM_P2
2023/10/14 00:00:37;;;;;;;9.23;4.35;;;;;;;;;;4981253;28;20146;-73
2023/10/14 00:03:18;;;;;;;10.73;4.15;;;;;;;;;;4977741;28;20039;-73
2023/10/14 00:05:43;;;;;;;9.05;4.38;;;;;;;;;;4971987;28;20030;-72
2023/10/14 00:08:12;;;;;;;8.32;4.03;;;;;;;;;;4988813;28;20028;-72
2023/10/14 00:10:38;;;;;;;8.40;4.10;;;;;;;;;;4975897;28;20899;-73
2023/10/14 00:13:04;;;;;;;9.43;3.95;;;;;;;;;;4988815;28;20185;-73
2023/10/14 00:15:34;;;;;;;8.95;3.88;;;;;;;;;;4989153;28;20117;-73
2023/10/14 00:17:59;;;;;;;;;;;;;;;;;;4989987;28;20104;-73
2023/10/14 00:20:25;;;;;;;7.30;3.88;;;;;;;;;;4988701;28;20044;-73
2023/10/14 00:22:50;;;;;;;8.07;3.85;;;;;;;;;;4989948;28;20045;-73
2023/10/14 00:25:19;;;;;;;6.28;3.90;;;;;;;;;;4988622;28;20509;-73
2023/10/14 00:27:44;;;;;;;10.45;4.20;;;;;;;;;;4985853;28;20658;-74
2023/10/14 00:30:11;;;;;;;8.63;3.83;;;;;;;;;;4972643;28;20042;-73
2023/10/14 00:32:37;;;;;;;7.38;3.50;;;;;;;;;;4963717;28;20524;-73
2023/10/14 00:35:03;;;;;;;7.35;3.67;;;;;;;;;;4966746;28;20112;-73
2023/10/14 00:37:32;;;;;;;7.85;4.05;;;;;;;;;;4988429;28;20110;-73
2023/10/14 00:40:10;;;;;;;6.70;3.80;;;;;;;;;;4986977;28;20042;-73
2023/10/14 00:42:36;;;;;;;7.30;3.58;;;;;;;;;;4991807;28;20030;-73
2023/10/14 00:45:01;;;;;;;9.70;4.50;;;;;;;;;;4985628;28;20450;-73
2023/10/14 00:47:26;;;;;;;6.53;3.77;;;;;;;;;;4969594;28;20485;-73
2023/10/14 00:49:52;;;;;;;7.38;3.72;;;;;;;;;;4986963;28;20282;-73
2023/10/14 00:52:22;;;;;;;7.00;4.07;;;;;;;;;;4987835;28;20038;-73
2023/10/14 00:55:13;;;;;;;8.23;3.60;;;;;;;;;;4973223;28;20027;-72
2023/10/14 00:57:39;;;;;;;6.15;3.33;;;;;;;;;;4979150;28;20042;-72
2023/10/14 01:00:09;;;;;;;6.57;3.70;;;;;;;;;;4978118;28;20035;-72
2023/10/14 01:02:37;;;;;;;8.48;3.75;;;;;;;;;;4990128;28;20077;-73
2023/10/14 01:05:10;;;;;;;9.15;3.83;;;;;;;;;;4975399;28;20465;-72
2023/10/14 01:07:38;;;;;;;8.60;3.33;;;;;;;;;;4963066;28;20086;-72
2023/10/14 01:10:05;;;;;;;6.65;3.78;;;;;;;;;;4968682;28;20070;-73
2023/10/14 01:12:44;;;;;;;7.55;3.50;;;;;;;;;;4984450;28;20039;-73
2023/10/14 01:15:31;;;;;;;7.82;3.65;;;;;;;;;;4998997;28;20043;-72
2023/10/14 01:17:56;;;;;;;8.20;3.45;;;;;;;;;;4988012;28;20081;-73
2023/10/14 01:23:06;;;;;;;8.85;3.85;;;;;;;;;;4987402;28;20273;-73
2023/10/14 01:25:32;;;;;;;7.18;3.83;;;;;;;;;;4994734;28;20038;-72
2023/10/14 01:27:59;;;;;;;9.50;4.00;;;;;;;;;;4988837;28;20030;-73
2023/10/14 01:30:32;;;;;;;7.13;3.63;;;;;;;;;;4979321;28;20573;-73
2023/10/14 01:33:08;;;;;;;8.35;3.55;;;;;;;;;;4982038;28;20022;-72
2023/10/14 01:35:40;;;;;;;6.13;3.58;;;;;;;;;;4986077;28;20545;-72
2023/10/14 01:38:06;;;;;;;7.93;3.63;;;;;;;;;;4988572;28;20038;-72
2023/10/14 01:40:39;;;;;;;6.73;3.33;;;;;;;;;;4978247;28;20038;-73
2023/10/14 01:43:08;;;;;;;10.10;4.18;;;;;;;;;;4973080;28;20280;-73
2023/10/14 01:45:48;;;;;;;8.68;3.50;;;;;;;;;;4994722;28;20034;-72
2023/10/14 01:48:14;;;;;;;8.65;3.60;;;;;;;;;;4987453;28;20054;-73
2023/10/14 01:50:44;;;;;;;5.50;3.47;;;;;;;;;;4977042;28;20039;-73
2023/10/14 01:53:13;;;;;;;7.65;3.78;;;;;;;;;;4989585;28;20540;-73
2023/10/14 01:55:41;;;;;;;6.05;3.42;;;;;;;;;;4980069;28;20530;-73
2023/10/14 01:58:10;;;;;;;6.53;3.65;;;;;;;;;;4986266;28;20501;-73
2023/10/14 02:00:37;;;;;;;7.55;3.33;;;;;;;;;;4986681;28;20035;-73
2023/10/14 02:03:06;;;;;;;7.93;3.53;;;;;;;;;;4987238;28;20034;-73
2023/10/14 02:05:39;;;;;;;8.20;3.58;;;;;;;;;;4986095;28;20030;-73
2023/10/14 02:08:05;;;;;;;6.43;3.60;;;;;;;;;;4986120;28;20153;-73
2023/10/14 02:10:35;;;;;;;7.22;3.50;;;;;;;;;;4959860;28;20054;-73
2023/10/14 02:13:00;;;;;;;9.05;3.03;;;;;;;;;;4950947;28;20035;-73
2023/10/14 02:15:26;;;;;;;6.82;3.85;;;;;;;;;;4953055;28;20504;-73
2023/10/14 02:17:51;;;;;;;7.68;3.47;;;;;;;;;;4950196;28;20034;-73
2023/10/14 02:20:20;;;;;;;7.55;3.05;;;;;;;;;;4973539;28;20030;-73
2023/10/14 02:22:45;;;;;;;7.78;3.83;;;;;;;;;;4952602;28;20062;-73
2023/10/14 02:25:15;;;;;;;7.30;3.47;;;;;;;;;;4984542;28;20524;-73
2023/10/14 02:27:42;;;;;;;8.02;3.70;;;;;;;;;;4985565;28;20223;-73
2023/10/14 02:30:08;;;;;;;6.88;3.13;;;;;;;;;;4979782;28;20035;-73
2023/10/14 02:32:34;;;;;;;9.05;3.42;;;;;;;;;;4980397;28;20101;-72
2023/10/14 02:34:59;;;;;;;6.68;3.15;;;;;;;;;;4991108;28;20034;-73
2023/10/14 02:37:24;;;;;;;7.95;3.53;;;;;;;;;;4969039;28;20402;-73
2023/10/14 02:39:50;;;;;;;6.43;3.17;;;;;;;;;;4983901;28;20126;-73
2023/10/14 02:42:16;;;;;;;5.72;3.35;;;;;;;;;;4974480;28;20343;-73
2023/10/14 02:44:44;;;;;;;7.22;3.03;;;;;;;;;;4993892;28;20034;-72
2023/10/14 02:47:10;;;;;;;5.82;3.50;;;;;;;;;;4984010;28;20113;-72
2023/10/14 02:49:37;;;;;;;7.65;3.58;;;;;;;;;;4985334;28;20134;-73
2023/10/14 02:52:08;;;;;;;7.45;3.42;;;;;;;;;;4982114;28;20038;-73
2023/10/14 02:54:34;;;;;;;7.47;3.40;;;;;;;;;;4992889;28;20030;-73
2023/10/14 02:57:00;;;;;;;6.65;3.13;;;;;;;;;;4971136;28;20705;-72
2023/10/14 02:59:44;;;;;;;7.85;3.67;;;;;;;;;;4986320;28;20507;-72
2023/10/14 03:02:25;;;;;;;6.65;3.15;;;;;;;;;;4970250;28;20457;-73
2023/10/14 03:07:26;;;;;;;7.00;3.08;;;;;;;;;;4972941;28;20105;-73
2023/10/14 03:09:52;;;;;;;6.75;3.13;;;;;;;;;;4952231;28;20030;-73
2023/10/14 03:12:21;;;;;;;7.18;3.53;;;;;;;;;;4969737;28;20039;-72
2023/10/14 03:14:50;;;;;;;6.00;3.25;;;;;;;;;;4991248;28;20042;-72
2023/10/14 03:17:25;;;;;;;7.45;3.65;;;;;;;;;;4989625;28;20042;-72
2023/10/14 03:19:53;;;;;;;8.55;3.55;;;;;;;;;;4988357;28;20034;-73
2023/10/14 03:22:22;;;;;;;8.00;3.42;;;;;;;;;;4990136;28;20066;-72
2023/10/14 03:24:49;;;;;;;8.18;3.67;;;;;;;;;;4980177;28;20525;-73
2023/10/14 03:27:15;;;;;;;6.72;3.40;;;;;;;;;;4980417;28;20671;-73
2023/10/14 03:29:45;;;;;;;7.45;3.63;;;;;;;;;;4969261;28;20066;-72
2023/10/14 03:32:10;;;;;;;5.95;3.42;;;;;;;;;;4968855;28;20501;-73
2023/10/14 03:34:41;;;;;;;6.28;3.38;;;;;;;;;;4981514;28;20041;-73
2023/10/14 03:37:18;;;;;;;7.22;3.50;;;;;;;;;;4980408;28;20034;-73
2023/10/14 03:39:54;;;;;;;6.15;3.40;;;;;;;;;;4990362;28;20372;-72
2023/10/14 03:42:22;;;;;;;7.10;3.83;;;;;;;;;;4972259;28;20073;-73
2023/10/14 03:44:47;;;;;;;5.45;3.05;;;;;;;;;;4975589;28;20085;-73
2023/10/14 03:47:16;;;;;;;7.18;3.38;;;;;;;;;;4951813;28;20047;-74
2023/10/14 03:49:43;;;;;;;6.00;3.20;;;;;;;;;;4960352;28;20043;-73
2023/10/14 03:52:11;;;;;;;6.78;3.38;;;;;;;;;;4968906;28;20043;-72
2023/10/14 03:54:45;;;;;;;6.65;3.25;;;;;;;;;;4982334;28;20061;-72
2023/10/14 03:57:19;;;;;;;6.68;3.30;;;;;;;;;;4965936;28;20046;-72
2023/10/14 03:59:47;;;;;;;7.47;3.33;;;;;;;;;;4976341;28;20149;-71
2023/10/14 04:02:15;;;;;;;7.03;3.53;;;;;;;;;;4987982;28;20058;-72
2023/10/14 04:04:42;;;;;;;6.65;3.50;;;;;;;;;;4988172;28;20076;-72
2023/10/14 04:09:51;;;;;;;8.02;3.13;;;;;;;;;;4987804;28;20034;-72
2023/10/14 04:14:57;;;;;;;;;;;;;;;;;;4973931;28;20038;-68
2023/10/14 04:17:29;;;;;;;5.60;3.35;;;;;;;;;;4982188;28;20013;-71
2023/10/14 04:19:58;;;;;;;6.18;2.88;;;;;;;;;;4989045;28;21351;-71
2023/10/14 04:22:32;;;;;;;7.07;2.90;;;;;;;;;;4966220;28;20038;-70
2023/10/14 04:35:23;;;;;;;7.00;2.77;;;;;;;;;;4977938;28;20038;-70
2023/10/14 04:37:51;;;;;;;6.10;3.05;;;;;;;;;;4982604;28;20840;-70
2023/10/14 04:40:35;;;;;;;4.63;2.72;;;;;;;;;;4984046;28;20040;-69
2023/10/14 04:43:11;;;;;;;5.82;3.00;;;;;;;;;;4982073;28;20034;-71
2023/10/14 04:45:37;;;;;;;7.70;2.70;;;;;;;;;;4984178;28;20612;-71
2023/10/14 04:48:05;;;;;;;4.75;2.70;;;;;;;;;;4982947;28;20035;-71
2023/10/14 04:50:31;;;;;;;6.72;2.88;;;;;;;;;;4981384;28;20535;-70
2023/10/14 04:52:57;;;;;;;4.45;2.65;;;;;;;;;;4981118;28;20023;-70
2023/10/14 05:00:38;;;;;;;4.40;2.40;;;;;;;;;;4979054;28;20621;-68
2023/10/14 05:03:05;;;;;;;6.10;2.78;;;;;;;;;;4978551;28;20038;-67
2023/10/14 05:05:33;;;;;;;4.65;2.80;;;;;;;;;;4969432;28;20125;-67
2023/10/14 05:07:59;;;;;;;4.57;2.50;;;;;;;;;;4984170;28;20045;-71
2023/10/14 05:10:28;;;;;;;5.25;2.88;;;;;;;;;;4987510;28;20038;-72
2023/10/14 05:12:54;;;;;;;4.72;2.58;;;;;;;;;;4986848;28;20042;-72
2023/10/14 05:15:19;;;;;;;5.47;2.53;;;;;;;;;;4991644;28;20099;-72
2023/10/14 05:17:52;;;;;;;4.85;2.40;;;;;;;;;;4978294;28;20038;-72
2023/10/14 05:23:05;;;;;;;5.45;2.65;;;;;;;;;;4976957;28;20137;-72
2023/10/14 05:25:30;;;;;;;5.32;2.75;;;;;;;;;;4988108;28;20027;-71
2023/10/14 05:27:55;;;;;;;5.77;2.80;;;;;;;;;;4972639;28;20058;-71
2023/10/14 05:30:21;;;;;;;5.45;2.60;;;;;;;;;;4982149;28;20823;-72
2023/10/14 05:32:48;;;;;;;6.07;2.70;;;;;;;;;;4969541;28;20042;-71
2023/10/14 05:35:13;;;;;;;4.45;2.55;;;;;;;;;;4993177;28;20086;-71
2023/10/14 05:37:41;;;;;;;4.57;2.60;;;;;;;;;;4970105;28;20035;-71
2023/10/14 05:40:13;;;;;;;4.55;2.60;;;;;;;;;;4993244;28;20548;-72
2023/10/14 05:42:39;;;;;;;5.40;2.78;;;;;;;;;;4988769;28;20030;-72
2023/10/14 05:45:04;;;;;;;5.35;2.47;;;;;;;;;;4988629;28;20484;-72
2023/10/14 05:47:29;;;;;;;4.03;2.45;;;;;;;;;;4981982;28;20055;-72
2023/10/14 05:49:55;;;;;;;4.05;2.25;;;;;;;;;;4968571;28;20106;-72
2023/10/14 05:52:24;;;;;;;4.57;2.40;;;;;;;;;;4979404;28;20059;-72
2023/10/14 05:54:50;;;;;;;5.25;2.47;;;;;;;;;;4987822;28;20053;-72
2023/10/14 05:57:18;;;;;;;4.05;2.33;;;;;;;;;;4958645;28;20466;-73
2023/10/14 05:59:46;;;;;;;3.20;2.40;;;;;;;;;;4951192;28;20070;-72
2023/10/14 06:02:13;;;;;;;4.95;2.97;;;;;;;;;;4943305;28;20050;-73
2023/10/14 06:04:41;;;;;;;4.20;2.78;;;;;;;;;;4980277;28;20049;-72
2023/10/14 06:07:08;;;;;;;5.78;2.60;;;;;;;;;;4986517;28;20476;-72
2023/10/14 06:09:34;;;;;;;5.70;2.67;;;;;;;;;;4984515;28;20046;-72
2023/10/14 06:12:00;;;;;;;5.45;2.63;;;;;;;;;;4984196;28;20035;-73
2023/10/14 06:14:25;;;;;;;4.53;2.53;;;;;;;;;;4952682;28;20027;-72
2023/10/14 06:16:51;;;;;;;4.03;2.22;;;;;;;;;;4980584;28;20045;-73
2023/10/14 06:19:18;;;;;;;3.73;2.50;;;;;;;;;;4965703;28;21533;-72
2023/10/14 06:21:44;;;;;;;4.80;2.70;;;;;;;;;;4967443;28;20855;-73
2023/10/14 06:24:10;;;;;;;5.57;2.50;;;;;;;;;;4967467;28;20058;-73
2023/10/14 06:26:36;;;;;;;3.55;2.28;;;;;;;;;;4969917;28;20027;-73
2023/10/14 06:29:01;;;;;;;5.27;2.40;;;;;;;;;;4967447;28;20070;-73
2023/10/14 06:31:26;;;;;;;6.72;3.10;;;;;;;;;;4985844;28;20279;-72
2023/10/14 06:33:55;;;;;;;4.88;2.45;;;;;;;;;;4964977;28;20133;-73
2023/10/14 06:36:23;;;;;;;5.68;3.00;;;;;;;;;;4959930;28;20114;-73
2023/10/14 06:38:49;;;;;;;4.68;2.75;;;;;;;;;;4954788;28;20031;-72
2023/10/14 06:41:17;;;;;;;5.60;2.60;;;;;;;;;;4935699;28;20038;-72
2023/10/14 06:43:47;;;;;;;3.85;2.55;;;;;;;;;;4971000;28;20060;-73
2023/10/14 06:46:13;;;;;;;4.43;2.83;;;;;;;;;;4965346;28;20049;-73
2023/10/14 06:48:41;;;;;;;3.30;2.22;;;;;;;;;;4975251;28;20043;-72
2023/10/14 06:51:09;;;;;;;5.03;2.65;;;;;;;;;;4963563;28;20030;-72
2023/10/14 06:53:34;;;;;;;4.30;2.40;;;;;;;;;;4975714;28;20038;-73
2023/10/14 06:56:01;;;;;;;4.78;2.53;;;;;;;;;;4972392;28;20113;-71
2023/10/14 06:58:28;;;;;;;4.65;2.90;;;;;;;;;;4973549;28;20057;-70
2023/10/14 07:00:53;;;;;;;5.50;2.83;;;;;;;;;;4972949;28;20042;-70
2023/10/14 07:03:18;;;;;;;4.37;2.70;;;;;;;;;;4972063;28;21292;-70
2023/10/14 07:05:56;;;;;;;5.93;2.70;;;;;;;;;;4972577;28;20321;-71
2023/10/14 07:08:23;;;;;;;4.32;2.85;;;;;;;;;;4973783;28;20396;-70
2023/10/14 07:10:50;;;;;;;5.13;3.03;;;;;;;;;;4973164;28;20026;-71
2023/10/14 07:13:20;;;;;;;5.05;2.70;;;;;;;;;;4953109;28;20030;-70
2023/10/14 07:15:46;;;;;;;7.38;3.20;;;;;;;;;;4954305;28;20031;-70
2023/10/14 07:18:14;;;;;;;4.25;2.80;;;;;;;;;;4953878;28;20504;-72
2023/10/14 07:20:42;;;;;;;5.00;3.05;;;;;;;;;;4955962;28;20125;-72
2023/10/14 07:23:08;;;;;;;5.15;2.90;;;;;;;;;;4956594;28;20031;-72
2023/10/14 07:25:35;;;;;;;5.43;2.90;;;;;;;;;;4970814;28;20088;-71
2023/10/14 07:28:01;;;;;;;4.65;2.97;;;;;;;;;;4972040;28;20050;-73
2023/10/14 07:30:27;;;;;;;5.03;2.85;;;;;;;;;;4971246;28;20039;-74
2023/10/14 07:32:53;;;;;;;3.63;2.60;;;;;;;;;;4952666;28;20050;-75
2023/10/14 07:35:18;;;;;;;6.13;3.00;;;;;;;;;;4955636;28;20039;-75
2023/10/14 07:37:44;;;;;;;5.28;2.85;;;;;;;;;;4957027;28;20039;-75
2023/10/14 07:40:22;;;;;;;5.13;3.08;;;;;;;;;;4955845;28;20050;-75
2023/10/14 07:42:54;;;;;;;5.57;2.75;;;;;;;;;;4954033;28;20042;-70
2023/10/14 07:45:20;;;;;;;6.60;2.97;;;;;;;;;;4954318;28;20042;-72
2023/10/14 07:47:46;;;;;;;5.18;2.90;;;;;;;;;;4956244;28;20039;-71
2023/10/14 07:50:12;;;;;;;5.95;2.80;;;;;;;;;;4955351;28;20043;-71
2023/10/14 07:52:37;;;;;;;5.20;2.97;;;;;;;;;;4955252;28;20511;-72
2023/10/14 07:55:04;;;;;;;5.63;2.80;;;;;;;;;;4953066;28;20036;-71
2023/10/14 07:57:29;;;;;;;4.38;2.92;;;;;;;;;;4955441;28;20027;-72
2023/10/14 07:59:59;;;;;;;5.17;2.83;;;;;;;;;;4937485;28;20034;-71
2023/10/14 08:02:26;;;;;;;6.22;3.22;;;;;;;;;;4955093;28;20306;-74
2023/10/14 08:04:53;;;;;;;6.85;3.72;;;;;;;;;;4958464;28;20032;-72
2023/10/14 08:07:18;;;;;;;8.73;3.65;;;;;;;;;;4960024;28;20059;-72
2023/10/14 08:09:43;;;;;;;4.93;3.17;;;;;;;;;;4957548;28;20085;-72
2023/10/14 08:12:09;;;;;;;5.90;2.90;;;;;;;;;;4959496;28;20035;-71
2023/10/14 08:14:34;;;;;;;5.95;3.08;;;;;;;;;;4940963;28;21928;-70
2023/10/14 08:16:59;;;;;;;6.03;3.10;;;;;;;;;;4941860;28;20043;-71
2023/10/14 08:19:26;;;;;;;5.27;3.00;;;;;;;;;;4958249;28;20050;-77
2023/10/14 08:21:52;;;;;;;4.82;2.65;;;;;;;;;;4964726;28;20870;-75
2023/10/14 08:24:18;;;;;;;5.47;3.10;;;;;;;;;;4967716;28;20046;-70
2023/10/14 08:26:46;;;;;;;7.57;2.90;;;;;;;;;;4958342;28;20469;-71
2023/10/14 08:29:12;;;;;;;4.38;2.65;;;;;;;;;;4959055;28;20051;-70
2023/10/14 08:31:37;;;;;;;5.93;3.00;;;;;;;;;;4958344;28;20533;-71
2023/10/14 08:34:03;;;;;;;5.03;3.03;;;;;;;;;;4957635;28;20097;-72
2023/10/14 08:36:29;;;;;;;4.97;2.95;;;;;;;;;;4958084;28;20842;-73
2023/10/14 08:38:54;;;;;;;5.82;3.17;;;;;;;;;;4958384;28;20066;-73
2023/10/14 08:41:19;;;;;;;5.27;3.20;;;;;;;;;;4958588;28;20106;-72
2023/10/14 08:43:49;;;;;;;6.50;3.33;;;;;;;;;;4965824;28;20320;-71
2023/10/14 08:46:14;;;;;;;6.38;3.38;;;;;;;;;;4975348;28;20048;-70
2023/10/14 08:48:42;;;;;;;4.68;2.90;;;;;;;;;;4958170;28;20043;-71
2023/10/14 08:51:08;;;;;;;5.03;2.95;;;;;;;;;;4993258;28;20034;-70
2023/10/14 08:53:40;;;;;;;4.70;2.75;;;;;;;;;;4961924;28;20390;-70
2023/10/14 08:56:05;;;;;;;5.40;3.05;;;;;;;;;;4960722;28;20038;-69
2023/10/14 08:58:36;;;;;;;4.85;2.72;;;;;;;;;;4971907;28;20485;-70
2023/10/14 09:01:02;;;;;;;5.93;3.15;;;;;;;;;;4990957;28;20175;-71
2023/10/14 09:03:27;;;;;;;5.38;3.33;;;;;;;;;;4979089;28;20054;-70
2023/10/14 09:05:52;;;;;;;4.53;2.90;;;;;;;;;;4975993;28;20375;-70
2023/10/14 09:08:19;;;;;;;4.80;2.67;;;;;;;;;;4980771;28;20325;-71
2023/10/14 09:10:44;;;;;;;4.43;3.10;;;;;;;;;;4982384;28;20088;-72
2023/10/14 09:13:10;;;;;;;7.28;3.20;;;;;;;;;;4983066;28;20525;-72
2023/10/14 09:15:38;;;;;;;7.03;3.42;;;;;;;;;;4969730;28;20034;-72
2023/10/14 09:18:07;;;;;;;5.07;3.20;;;;;;;;;;4978531;28;20073;-72
2023/10/14 09:20:37;;;;;;;5.37;2.73;;;;;;;;;;4967024;28;20031;-73
2023/10/14 09:23:14;;;;;;;4.78;3.00;;;;;;;;;;4962039;28;20038;-73
2023/10/14 09:25:45;;;;;;;5.78;2.95;;;;;;;;;;4980983;28;20049;-73
2023/10/14 09:28:11;;;;;;;5.82;2.90;;;;;;;;;;4984985;28;20273;-71
2023/10/14 09:30:37;;;;;;;5.70;3.13;;;;;;;;;;4980093;28;20051;-73
2023/10/14 09:33:03;;;;;;;6.07;3.65;;;;;;;;;;4959243;28;20038;-72
2023/10/14 09:35:30;;;;;;;5.22;3.08;;;;;;;;;;4981979;28;20133;-72
2023/10/14 09:37:55;;;;;;;8.13;3.00;;;;;;;;;;4983890;28;20109;-75
2023/10/14 09:40:21;;;;;;;7.13;3.25;;;;;;;;;;4947833;28;20430;-72
2023/10/14 09:42:48;;;;;;;5.47;2.85;;;;;;;;;;4941974;28;20035;-73
2023/10/14 09:45:13;;;;;;;15.85;4.18;;;;;;;;;;4976741;28;20057;-73
2023/10/14 09:47:39;;;;;;;10.10;3.77;;;;;;;;;;4968416;28;20066;-72
2023/10/14 09:50:05;;;;;;;14.23;4.32;;;;;;;;;;4965330;28;20329;-72
2023/10/14 09:52:31;;;;;;;7.35;3.65;;;;;;;;;;4960199;28;20061;-72
2023/10/14 09:54:56;;;;;;;7.33;3.67;;;;;;;;;;4942744;28;20073;-78
2023/10/14 09:57:21;;;;;;;7.27;2.93;;;;;;;;;;4947034;28;20359;-73
2023/10/14 09:59:47;;;;;;;7.22;3.83;;;;;;;;;;4965542;28;20737;-73
2023/10/14 10:02:12;;;;;;;8.50;4.05;;;;;;;;;;4971354;28;20038;-72
2023/10/14 10:04:40;;;;;;;7.53;3.83;;;;;;;;;;4975310;28;20038;-73
2023/10/14 10:07:24;;;;;;;6.43;3.40;;;;;;;;;;4954753;28;20027;-72
2023/10/14 10:10:10;;;;;;;7.25;3.30;;;;;;;;;;4976817;28;20141;-72
2023/10/14 10:12:36;;;;;;;7.40;3.58;;;;;;;;;;4974696;28;20034;-71
2023/10/14 10:15:06;;;;;;;6.85;3.60;;;;;;;;;;4970130;28;20432;-72
2023/10/14 10:17:33;;;;;;;7.28;3.35;;;;;;;;;;4955877;28;20023;-72
2023/10/14 10:19:58;;;;;;;6.78;3.28;;;;;;;;;;4963191;28;20406;-72
2023/10/14 10:22:23;;;;;;;8.17;3.87;;;;;;;;;;4991594;28;20027;-74
2023/10/14 10:24:49;;;;;;;7.93;3.57;;;;;;;;;;4979069;28;20312;-76
2023/10/14 10:27:16;;;;;;;8.07;3.70;;;;;;;;;;4970857;28;20290;-75
2023/10/14 10:29:43;;;;;;;8.75;4.07;;;;;;;;;;4970150;28;20707;-74
2023/10/14 10:32:19;;;;;;;12.10;3.85;;;;;;;;;;4961937;28;20039;-72
2023/10/14 10:35:04;;;;;;;7.40;3.38;;;;;;;;;;4981247;28;20046;-73
2023/10/14 10:37:29;;;;;;;7.53;3.30;;;;;;;;;;4977699;28;20046;-73
2023/10/14 10:39:54;;;;;;;6.30;3.60;;;;;;;;;;4977903;28;20042;-75
2023/10/14 10:42:19;;;;;;;10.90;3.60;;;;;;;;;;4969375;28;20031;-72
2023/10/14 10:44:45;;;;;;;5.55;3.30;;;;;;;;;;4954296;28;20701;-72
2023/10/14 10:47:12;;;;;;;5.27;3.47;;;;;;;;;;4965263;28;20038;-72
2023/10/14 10:49:59;;;;;;;7.15;3.42;;;;;;;;;;4968119;28;20313;-72
2023/10/14 10:52:28;;;;;;;6.13;3.42;;;;;;;;;;4968124;28;20219;-72
2023/10/14 10:54:53;;;;;;;8.45;3.90;;;;;;;;;;4960107;28;21108;-72
2023/10/14 10:57:19;;;;;;;6.88;3.55;;;;;;;;;;4949350;28;20069;-71
2023/10/14 10:59:44;;;;;;;8.48;3.35;;;;;;;;;;4973426;28;20038;-71
2023/10/14 11:02:10;;;;;;;8.60;3.20;;;;;;;;;;4974927;28;20039;-71
2023/10/14 11:04:35;;;;;;;9.25;3.40;;;;;;;;;;4973672;28;20479;-73
2023/10/14 11:07:01;;;;;;;9.70;3.63;;;;;;;;;;4978952;28;20133;-71
2023/10/14 11:09:29;;;;;;;4.85;2.97;;;;;;;;;;4974389;28;20096;-71
2023/10/14 11:12:02;;;;;;;6.50;3.08;;;;;;;;;;4957815;28;20584;-72
2023/10/14 11:14:27;;;;;;;7.57;3.90;;;;;;;;;;4971862;28;20050;-72
2023/10/14 11:16:56;;;;;;;6.83;3.30;;;;;;;;;;4973867;28;20130;-72
2023/10/14 11:19:21;;;;;;;7.20;3.13;;;;;;;;;;4958048;28;20307;-72
2023/10/14 11:21:50;;;;;;;8.30;3.30;;;;;;;;;;4973794;28;20168;-71
2023/10/14 11:24:16;;;;;;;6.93;3.13;;;;;;;;;;4955076;28;20034;-71
2023/10/14 11:26:44;;;;;;;6.18;2.95;;;;;;;;;;4974371;28;20038;-71
2023/10/14 11:29:10;;;;;;;6.53;3.05;;;;;;;;;;4956118;28;20046;-71
2023/10/14 11:31:36;;;;;;;7.85;3.17;;;;;;;;;;4972873;28;20046;-71
2023/10/14 11:34:01;;;;;;;7.40;2.92;;;;;;;;;;4953524;28;20157;-71
2023/10/14 11:36:27;;;;;;;7.22;3.05;;;;;;;;;;4973644;28;20038;-71
2023/10/14 11:38:52;;;;;;;5.90;3.20;;;;;;;;;;4941941;28;20035;-74
2023/10/14 11:41:20;;;;;;;6.18;2.70;;;;;;;;;;4938466;28;20494;-74
2023/10/14 11:43:45;;;;;;;4.45;2.67;;;;;;;;;;4956277;28;20035;-72
2023/10/14 11:46:11;;;;;;;7.55;2.67;;;;;;;;;;4976088;28;20052;-72
2023/10/14 11:48:38;;;;;;;6.20;3.67;;;;;;;;;;4973475;28;20092;-73
2023/10/14 11:51:04;;;;;;;6.57;3.15;;;;;;;;;;4977197;28;20035;-74
2023/10/14 11:53:30;;;;;;;6.40;2.95;;;;;;;;;;4975420;28;20081;-72
2023/10/14 11:55:58;;;;;;;6.15;2.97;;;;;;;;;;4976009;28;20096;-72
2023/10/14 11:58:24;;;;;;;6.70;3.00;;;;;;;;;;4973302;28;20054;-70
2023/10/14 12:00:49;;;;;;;6.07;2.90;;;;;;;;;;4958362;28;20379;-70
2023/10/14 12:03:14;;;;;;;7.07;3.00;;;;;;;;;;4975471;28;20683;-71
2023/10/14 12:05:40;;;;;;;6.53;2.90;;;;;;;;;;4955299;28;20377;-70
2023/10/14 12:08:08;;;;;;;7.68;2.90;;;;;;;;;;4959997;28;20381;-72
2023/10/14 12:10:33;;;;;;;5.80;2.70;;;;;;;;;;4960905;28;20151;-72
2023/10/14 12:12:59;;;;;;;5.47;2.70;;;;;;;;;;4941275;28;20098;-72
2023/10/14 12:15:24;;;;;;;5.03;2.63;;;;;;;;;;4963735;28;20109;-72
2023/10/14 12:17:50;;;;;;;6.15;2.78;;;;;;;;;;4959841;28;20028;-73
2023/10/14 12:20:15;;;;;;;7.73;3.17;;;;;;;;;;4966501;28;20027;-72
2023/10/14 12:22:41;;;;;;;6.27;2.80;;;;;;;;;;4958957;28;20813;-72
2023/10/14 12:25:07;;;;;;;7.80;2.90;;;;;;;;;;4956914;28;20298;-72
2023/10/14 12:27:33;;;;;;;8.07;2.95;;;;;;;;;;4960495;28;20023;-72
2023/10/14 12:30:00;;;;;;;5.68;2.70;;;;;;;;;;4958960;28;20513;-72
2023/10/14 12:32:32;;;;;;;5.22;2.70;;;;;;;;;;4959805;28;20082;-73
2023/10/14 12:35:01;;;;;;;7.80;3.03;;;;;;;;;;4959051;28;20034;-72
2023/10/14 12:37:28;;;;;;;7.28;2.60;;;;;;;;;;4963065;28;20606;-72
2023/10/14 12:39:57;;;;;;;6.28;2.72;;;;;;;;;;4975982;28;20121;-72
2023/10/14 12:42:44;;;;;;;6.28;2.42;;;;;;;;;;4962382;28;20119;-72
2023/10/14 12:45:12;;;;;;;5.55;2.85;;;;;;;;;;4962409;28;20119;-72
2023/10/14 12:47:44;;;;;;;6.07;2.50;;;;;;;;;;4942636;28;20832;-73
2023/10/14 12:50:10;;;;;;;7.03;2.70;;;;;;;;;;4962055;28;20049;-72
2023/10/14 12:52:38;;;;;;;4.93;2.60;;;;;;;;;;4973509;28;20042;-73
2023/10/14 12:55:13;;;;;;;5.55;3.03;;;;;;;;;;4979334;28;20294;-72
2023/10/14 12:57:39;;;;;;;6.68;2.70;;;;;;;;;;4980064;28;20031;-72
2023/10/14 13:00:04;;;;;;;6.38;2.90;;;;;;;;;;4961316;28;20176;-73
2023/10/14 13:02:34;;;;;;;4.70;2.47;;;;;;;;;;4962685;28;20038;-72
2023/10/14 13:05:02;;;;;;;4.45;2.35;;;;;;;;;;4977131;28;20026;-72
2023/10/14 13:07:27;;;;;;;4.18;2.40;;;;;;;;;;4978138;28;20038;-72
2023/10/14 13:09:53;;;;;;;4.57;2.57;;;;;;;;;;4961753;28;20455;-72
2023/10/14 13:12:18;;;;;;;5.57;2.58;;;;;;;;;;4979185;28;20300;-72
2023/10/14 13:14:44;;;;;;;5.35;2.88;;;;;;;;;;4978273;28;20683;-71
2023/10/14 13:17:09;;;;;;;5.43;2.83;;;;;;;;;;4966756;28;20113;-72
2023/10/14 13:19:35;;;;;;;6.38;2.92;;;;;;;;;;4943887;28;20039;-72
2023/10/14 13:22:09;;;;;;;4.32;2.63;;;;;;;;;;4958563;28;20073;-72
2023/10/14 13:24:34;;;;;;;4.72;2.78;;;;;;;;;;4967938;28;20058;-72
2023/10/14 13:27:00;;;;;;;4.00;2.58;;;;;;;;;;4963918;28;20055;-72
2023/10/14 13:29:26;;;;;;;6.93;2.50;;;;;;;;;;4951140;28;20048;-72
2023/10/14 13:31:51;;;;;;;7.75;2.65;;;;;;;;;;4962544;28;20884;-75
2023/10/14 13:34:18;;;;;;;5.85;2.60;;;;;;;;;;4965729;28;20525;-73
2023/10/14 13:36:44;;;;;;;7.50;2.67;;;;;;;;;;4959871;28;20125;-73
2023/10/14 13:39:15;;;;;;;6.95;3.03;;;;;;;;;;4938936;28;20039;-74
2023/10/14 13:41:42;;;;;;;9.18;2.88;;;;;;;;;;4964340;28;20110;-74
2023/10/14 13:44:07;;;;;;;9.05;3.88;;;;;;;;;;4954522;28;20106;-73
2023/10/14 13:46:32;;;;;;;7.53;3.20;;;;;;;;;;4964575;28;20031;-73
2023/10/14 13:48:57;;;;;;;5.30;2.60;;;;;;;;;;4967234;28;20903;-72
2023/10/14 13:51:24;;;;;;;5.57;2.00;;;;;;;;;;4978582;28;20340;-73
2023/10/14 13:53:50;;;;;;;6.75;2.85;;;;;;;;;;4961693;28;20037;-71
2023/10/14 13:56:15;;;;;;;5.90;2.53;;;;;;;;;;4984729;28;20031;-72
2023/10/14 13:58:40;;;;;;;5.30;3.17;;;;;;;;;;4984389;28;20549;-76
2023/10/14 14:01:11;;;;;;;4.50;2.33;;;;;;;;;;4962363;28;20081;-74
2023/10/14 14:03:39;;;;;;;7.07;2.47;;;;;;;;;;4974136;28;20106;-73
2023/10/14 14:06:05;;;;;;;6.63;2.80;;;;;;;;;;4973536;28;20039;-73
2023/10/14 14:08:30;;;;;;;5.55;2.88;;;;;;;;;;4975187;28;20149;-74
2023/10/14 14:11:00;;;;;;;5.93;2.70;;;;;;;;;;4975597;28;20031;-74
2023/10/14 14:13:26;;;;;;;7.78;2.90;;;;;;;;;;4973352;28;20536;-73
2023/10/14 14:15:51;;;;;;;7.00;2.65;;;;;;;;;;4974755;28;20358;-75
2023/10/14 14:18:17;;;;;;;8.23;3.00;;;;;;;;;;4958769;28;20035;-77
2023/10/14 14:20:42;;;;;;;7.60;3.17;;;;;;;;;;4954526;28;20282;-71
2023/10/14 14:23:08;;;;;;;5.97;2.53;;;;;;;;;;4955263;28;20161;-72
2023/10/14 14:25:33;;;;;;;9.63;2.90;;;;;;;;;;4939354;28;20474;-76
2023/10/14 14:27:59;;;;;;;6.20;2.83;;;;;;;;;;4959425;28;20729;-80
2023/10/14 14:30:27;;;;;;;6.43;3.00;;;;;;;;;;4972545;28;20038;-74
2023/10/14 14:32:56;;;;;;;5.30;2.53;;;;;;;;;;4956615;28;20134;-74
2023/10/14 14:35:26;;;;;;;5.75;2.58;;;;;;;;;;4960293;28;20126;-75
2023/10/14 14:37:51;;;;;;;6.60;2.35;;;;;;;;;;4972125;28;20035;-72
2023/10/14 14:40:21;;;;;;;6.53;3.10;;;;;;;;;;4956430;28;20011;-72
2023/10/14 14:42:46;;;;;;;;;;;;;;;;;;4976230;28;20042;-72
2023/10/14 14:45:15;;;;;;;6.63;2.90;;;;;;;;;;4976171;28;19957;-72
2023/10/14 14:47:40;;;;;;;8.07;2.92;;;;;;;;;;4974106;28;20065;-72
2023/10/14 14:50:07;;;;;;;4.97;3.05;;;;;;;;;;4956557;28;20074;-70
2023/10/14 14:52:32;;;;;;;4.80;2.72;;;;;;;;;;4975209;28;20524;-70
2023/10/14 14:54:58;;;;;;;6.00;2.72;;;;;;;;;;4973344;28;20062;-70
2023/10/14 14:57:23;;;;;;;5.28;2.97;;;;;;;;;;4974771;28;20049;-70
2023/10/14 14:59:50;;;;;;;6.22;3.40;;;;;;;;;;4972836;28;20039;-71
2023/10/14 15:02:15;;;;;;;5.45;2.72;;;;;;;;;;4956243;28;20053;-70
2023/10/14 15:04:41;;;;;;;7.22;3.30;;;;;;;;;;4973038;28;20030;-70
2023/10/14 15:07:06;;;;;;;6.73;2.80;;;;;;;;;;4971813;28;20521;-70
2023/10/14 15:09:31;;;;;;;5.87;2.93;;;;;;;;;;4955104;28;20318;-70
2023/10/14 15:11:57;;;;;;;6.10;2.67;;;;;;;;;;4975588;28;20819;-71
2023/10/14 15:14:22;;;;;;;5.85;2.67;;;;;;;;;;4978438;28;20038;-71